sensor_id;sensor_type;location;lat;lon;timestamp;temperature;humidity
2729;DHT22;1372;47.956;7.830;2024-02-04T00:00:26;6.40;99.90
2729;DHT22;1372;47.956;7.830;2024-02-04T00:02:56;6.50;99.90
2729;DHT22;1372;47.956;7.830;2024-02-04T00:05:25;6.50;99.90
2729;DHT22;1372;47.956;7.830;2024-02-04T00:07:53;6.60;99.90
2729;DHT22;1372;47.956;7.830;2024-02-04T00:10:22;6.70;99.90
2729;DHT22;1372;47.956;7.830;2024-02-04T00:12:52;6.70;99.90
2729;DHT22;1372;47.956;7.830;2024-02-04T00:15:21;6.70;99.90
2729;DHT22;1372;47.956;7.830;2024-02-04T00:17:50;6.70;99.90
2729;DHT22;1372;47.956;7.830;2024-02-04T00:20:21;6.80;99.90
2729;DHT22;1372;47.956;7.830;2024-02-04T00:22:53;6.80;99.90
2729;DHT22;1372;47.956;7.830;2024-02-04T00:25:22;6.90;99.90
2729;DHT22;1372;47.956;7.830;2024-02-04T00:27:51;6.90;99.90
2729;DHT22;1372;47.956;7.830;2024-02-04T00:30:19;7.00;99.90
2729;DHT22;1372;47.956;7.830;2024-02-04T00:32:50;6.90;99.90
2729;DHT22;1372;47.956;7.830;2024-02-04T00:35:31;6.90;99.90
2729;DHT22;1372;47.956;7.830;2024-02-04T00:38:00;6.90;99.90
2729;DHT22;1372;47.956;7.830;2024-02-04T00:40:30;6.90;99.90
2729;DHT22;1372;47.956;7.830;2024-02-04T00:43:02;6.90;99.90
2729;DHT22;1372;47.956;7.830;2024-02-04T00:45:31;6.90;99.90
2729;DHT22;1372;47.956;7.830;2024-02-04T00:48:02;6.90;99.90
2729;DHT22;1372;47.956;7.830;2024-02-04T00:50:33;6.90;99.90
2729;DHT22;1372;47.956;7.830;2024-02-04T00:53:04;6.90;99.90
2729;DHT22;1372;47.956;7.830;2024-02-04T00:55:33;6.90;99.90
2729;DHT22;1372;47.956;7.830;2024-02-04T00:58:04;6.90;99.90
2729;DHT22;1372;47.956;7.830;2024-02-04T01:00:34;6.80;99.90
2729;DHT22;1372;47.956;7.830;2024-02-04T01:03:03;6.80;99.90
2729;DHT22;1372;47.956;7.830;2024-02-04T01:05:34;6.90;99.90
2729;DHT22;1372;47.956;7.830;2024-02-04T01:08:03;6.90;99.90
2729;DHT22;1372;47.956;7.830;2024-02-04T01:10:34;6.90;99.90
2729;DHT22;1372;47.956;7.830;2024-02-04T01:13:03;6.90;99.90
2729;DHT22;1372;47.956;7.830;2024-02-04T01:15:32;6.90;99.90
2729;DHT22;1372;47.956;7.830;2024-02-04T01:18:01;6.90;99.90
2729;DHT22;1372;47.956;7.830;2024-02-04T01:20:30;6.90;99.90
2729;DHT22;1372;47.956;7.830;2024-02-04T01:23:00;7.00;99.90
2729;DHT22;1372;47.956;7.830;2024-02-04T01:25:29;7.00;99.90
2729;DHT22;1372;47.956;7.830;2024-02-04T01:27:58;7.00;99.90
2729;DHT22;1372;47.956;7.830;2024-02-04T01:30:30;7.00;99.90
2729;DHT22;1372;47.956;7.830;2024-02-04T01:33:01;7.00;99.90
2729;DHT22;1372;47.956;7.830;2024-02-04T01:35:33;7.00;99.90
2729;DHT22;1372;47.956;7.830;2024-02-04T01:38:03;7.00;99.90
2729;DHT22;1372;47.956;7.830;2024-02-04T01:40:34;7.00;99.90
2729;DHT22;1372;47.956;7.830;2024-02-04T01:43:03;6.90;99.90
2729;DHT22;1372;47.956;7.830;2024-02-04T01:45:33;6.90;99.90
2729;DHT22;1372;47.956;7.830;2024-02-04T01:48:02;7.00;99.90
2729;DHT22;1372;47.956;7.830;2024-02-04T01:50:31;7.00;99.90
2729;DHT22;1372;47.956;7.830;2024-02-04T01:53:04;7.00;99.90
2729;DHT22;1372;47.956;7.830;2024-02-04T01:55:39;7.00;99.90
2729;DHT22;1372;47.956;7.830;2024-02-04T01:58:08;7.00;99.90
2729;DHT22;1372;47.956;7.830;2024-02-04T02:00:37;7.00;99.90
2729;DHT22;1372;47.956;7.830;2024-02-04T02:03:11;7.00;99.90
2729;DHT22;1372;47.956;7.830;2024-02-04T02:05:43;7.00;99.90
2729;DHT22;1372;47.956;7.830;2024-02-04T02:08:14;7.00;99.90
2729;DHT22;1372;47.956;7.830;2024-02-04T02:10:46;7.00;99.90
2729;DHT22;1372;47.956;7.830;2024-02-04T02:13:22;7.00;99.90
2729;DHT22;1372;47.956;7.830;2024-02-04T02:15:58;7.00;99.90
2729;DHT22;1372;47.956;7.830;2024-02-04T02:18:35;7.00;99.90
2729;DHT22;1372;47.956;7.830;2024-02-04T02:21:16;7.00;99.90
2729;DHT22;1372;47.956;7.830;2024-02-04T02:24:05;6.90;99.90
2729;DHT22;1372;47.956;7.830;2024-02-04T02:26:40;6.90;99.90
2729;DHT22;1372;47.956;7.830;2024-02-04T02:29:11;6.80;99.90
2729;DHT22;1372;47.956;7.830;2024-02-04T02:31:43;6.80;99.90
2729;DHT22;1372;47.956;7.830;2024-02-04T02:34:13;6.90;99.90
2729;DHT22;1372;47.956;7.830;2024-02-04T02:36:51;6.90;99.90
2729;DHT22;1372;47.956;7.830;2024-02-04T02:39:24;6.90;99.90
2729;DHT22;1372;47.956;7.830;2024-02-04T02:42:01;6.90;99.90
2729;DHT22;1372;47.956;7.830;2024-02-04T02:44:30;6.90;99.90
2729;DHT22;1372;47.956;7.830;2024-02-04T02:47:01;6.90;99.90
2729;DHT22;1372;47.956;7.830;2024-02-04T02:49:31;6.90;99.90
2729;DHT22;1372;47.956;7.830;2024-02-04T02:52:00;6.90;99.90
2729;DHT22;1372;47.956;7.830;2024-02-04T02:54:29;6.90;99.90
2729;DHT22;1372;47.956;7.830;2024-02-04T02:56:59;6.80;99.90
2729;DHT22;1372;47.956;7.830;2024-02-04T02:59:29;6.80;99.90
2729;DHT22;1372;47.956;7.830;2024-02-04T03:01:58;6.90;99.90
2729;DHT22;1372;47.956;7.830;2024-02-04T03:04:27;6.80;99.90
2729;DHT22;1372;47.956;7.830;2024-02-04T03:06:56;6.80;99.90
2729;DHT22;1372;47.956;7.830;2024-02-04T03:09:25;6.80;99.90
2729;DHT22;1372;47.956;7.830;2024-02-04T03:11:54;6.90;99.90
2729;DHT22;1372;47.956;7.830;2024-02-04T03:14:24;6.90;99.90
2729;DHT22;1372;47.956;7.830;2024-02-04T03:16:53;6.90;99.90
2729;DHT22;1372;47.956;7.830;2024-02-04T03:19:22;6.90;99.90
2729;DHT22;1372;47.956;7.830;2024-02-04T03:21:52;6.80;99.90
2729;DHT22;1372;47.956;7.830;2024-02-04T03:24:21;6.80;99.90
2729;DHT22;1372;47.956;7.830;2024-02-04T03:26:50;6.90;99.90
2729;DHT22;1372;47.956;7.830;2024-02-04T03:29:19;6.90;99.90
2729;DHT22;1372;47.956;7.830;2024-02-04T03:31:50;6.90;99.90
2729;DHT22;1372;47.956;7.830;2024-02-04T03:34:19;7.00;99.90
2729;DHT22;1372;47.956;7.830;2024-02-04T03:36:48;6.90;99.90
2729;DHT22;1372;47.956;7.830;2024-02-04T03:39:16;7.00;99.90
2729;DHT22;1372;47.956;7.830;2024-02-04T03:41:45;7.00;99.90
2729;DHT22;1372;47.956;7.830;2024-02-04T03:44:14;6.90;99.90
2729;DHT22;1372;47.956;7.830;2024-02-04T03:46:43;7.00;99.90
2729;DHT22;1372;47.956;7.830;2024-02-04T03:49:19;7.00;99.90
2729;DHT22;1372;47.956;7.830;2024-02-04T03:51:49;7.00;99.90
2729;DHT22;1372;47.956;7.830;2024-02-04T03:54:18;7.00;99.90
2729;DHT22;1372;47.956;7.830;2024-02-04T03:56:47;7.00;99.90
2729;DHT22;1372;47.956;7.830;2024-02-04T03:59:16;7.00;99.90
2729;DHT22;1372;47.956;7.830;2024-02-04T04:01:47;7.00;99.90
2729;DHT22;1372;47.956;7.830;2024-02-04T04:04:18;7.00;99.90
2729;DHT22;1372;47.956;7.830;2024-02-04T04:06:48;7.00;99.90
2729;DHT22;1372;47.956;7.830;2024-02-04T04:09:19;7.00;99.90
2729;DHT22;1372;47.956;7.830;2024-02-04T04:11:50;7.00;99.90
2729;DHT22;1372;47.956;7.830;2024-02-04T04:14:19;6.90;99.90
2729;DHT22;1372;47.956;7.830;2024-02-04T04:16:48;6.90;99.90
2729;DHT22;1372;47.956;7.830;2024-02-04T04:19:16;6.90;99.90
2729;DHT22;1372;47.956;7.830;2024-02-04T04:21:47;6.90;99.90
2729;DHT22;1372;47.956;7.830;2024-02-04T04:24:15;6.90;99.90
2729;DHT22;1372;47.956;7.830;2024-02-04T04:26:47;6.90;99.90
2729;DHT22;1372;47.956;7.830;2024-02-04T04:29:15;6.90;99.90
2729;DHT22;1372;47.956;7.830;2024-02-04T04:31:45;6.90;99.90
2729;DHT22;1372;47.956;7.830;2024-02-04T04:34:13;6.90;99.90
2729;DHT22;1372;47.956;7.830;2024-02-04T04:36:47;6.90;99.90
2729;DHT22;1372;47.956;7.830;2024-02-04T04:39:16;6.90;99.90
2729;DHT22;1372;47.956;7.830;2024-02-04T04:41:45;6.90;99.90
2729;DHT22;1372;47.956;7.830;2024-02-04T04:44:13;6.80;99.90
2729;DHT22;1372;47.956;7.830;2024-02-04T04:46:45;6.90;99.90
2729;DHT22;1372;47.956;7.830;2024-02-04T04:49:16;6.90;99.90
2729;DHT22;1372;47.956;7.830;2024-02-04T04:51:47;6.90;99.90
2729;DHT22;1372;47.956;7.830;2024-02-04T04:54:15;6.90;99.90
2729;DHT22;1372;47.956;7.830;2024-02-04T04:56:44;6.80;99.90
2729;DHT22;1372;47.956;7.830;2024-02-04T04:59:14;6.80;99.90
2729;DHT22;1372;47.956;7.830;2024-02-04T05:01:46;6.80;99.90
2729;DHT22;1372;47.956;7.830;2024-02-04T05:04:16;6.80;99.90
2729;DHT22;1372;47.956;7.830;2024-02-04T05:06:47;6.90;99.90
2729;DHT22;1372;47.956;7.830;2024-02-04T05:09:16;6.90;99.90
2729;DHT22;1372;47.956;7.830;2024-02-04T05:11:47;6.90;99.90
2729;DHT22;1372;47.956;7.830;2024-02-04T05:14:16;6.90;99.90
2729;DHT22;1372;47.956;7.830;2024-02-04T05:16:45;6.80;99.90
2729;DHT22;1372;47.956;7.830;2024-02-04T05:19:14;6.80;99.90
2729;DHT22;1372;47.956;7.830;2024-02-04T05:21:42;6.80;99.90
2729;DHT22;1372;47.956;7.830;2024-02-04T05:24:13;6.80;99.90
2729;DHT22;1372;47.956;7.830;2024-02-04T05:26:41;6.80;99.90
2729;DHT22;1372;47.956;7.830;2024-02-04T05:29:10;6.70;99.90
2729;DHT22;1372;47.956;7.830;2024-02-04T05:31:41;6.70;99.90
2729;DHT22;1372;47.956;7.830;2024-02-04T05:34:14;6.70;99.90
2729;DHT22;1372;47.956;7.830;2024-02-04T05:36:43;6.70;99.90
2729;DHT22;1372;47.956;7.830;2024-02-04T05:39:14;6.70;99.90
2729;DHT22;1372;47.956;7.830;2024-02-04T05:41:44;6.60;99.90
2729;DHT22;1372;47.956;7.830;2024-02-04T05:44:13;6.60;99.90
2729;DHT22;1372;47.956;7.830;2024-02-04T05:46:42;6.60;99.90
2729;DHT22;1372;47.956;7.830;2024-02-04T05:49:11;6.60;99.90
2729;DHT22;1372;47.956;7.830;2024-02-04T05:51:40;6.50;99.90
2729;DHT22;1372;47.956;7.830;2024-02-04T05:54:10;6.40;99.90
2729;DHT22;1372;47.956;7.830;2024-02-04T05:56:43;6.40;99.90
2729;DHT22;1372;47.956;7.830;2024-02-04T05:59:12;6.30;99.90
2729;DHT22;1372;47.956;7.830;2024-02-04T06:01:43;6.20;99.90
2729;DHT22;1372;47.956;7.830;2024-02-04T06:04:12;6.00;99.90
2729;DHT22;1372;47.956;7.830;2024-02-04T06:06:41;6.00;99.90
2729;DHT22;1372;47.956;7.830;2024-02-04T06:09:12;5.90;99.90
2729;DHT22;1372;47.956;7.830;2024-02-04T06:11:46;5.80;99.90
2729;DHT22;1372;47.956;7.830;2024-02-04T06:14:15;5.80;99.90
2729;DHT22;1372;47.956;7.830;2024-02-04T06:16:44;5.80;99.90
2729;DHT22;1372;47.956;7.830;2024-02-04T06:19:12;5.70;99.90
2729;DHT22;1372;47.956;7.830;2024-02-04T06:21:42;5.70;99.90
2729;DHT22;1372;47.956;7.830;2024-02-04T06:24:10;5.70;99.90
2729;DHT22;1372;47.956;7.830;2024-02-04T06:26:39;5.70;99.90
2729;DHT22;1372;47.956;7.830;2024-02-04T06:29:10;5.70;99.90
2729;DHT22;1372;47.956;7.830;2024-02-04T06:31:39;5.60;99.90
2729;DHT22;1372;47.956;7.830;2024-02-04T06:34:09;5.50;99.90
2729;DHT22;1372;47.956;7.830;2024-02-04T06:36:42;5.40;99.90
2729;DHT22;1372;47.956;7.830;2024-02-04T06:39:13;5.40;99.90
2729;DHT22;1372;47.956;7.830;2024-02-04T06:41:44;5.40;99.90
2729;DHT22;1372;47.956;7.830;2024-02-04T06:44:14;5.30;99.90
2729;DHT22;1372;47.956;7.830;2024-02-04T06:46:43;5.30;99.90
2729;DHT22;1372;47.956;7.830;2024-02-04T06:49:12;5.30;99.90
2729;DHT22;1372;47.956;7.830;2024-02-04T06:51:46;5.40;99.90
2729;DHT22;1372;47.956;7.830;2024-02-04T06:54:15;5.60;99.90
2729;DHT22;1372;47.956;7.830;2024-02-04T06:56:45;5.50;99.90
2729;DHT22;1372;47.956;7.830;2024-02-04T06:59:16;5.60;99.90
2729;DHT22;1372;47.956;7.830;2024-02-04T07:01:45;5.70;99.90
2729;DHT22;1372;47.956;7.830;2024-02-04T07:04:14;5.80;99.90
2729;DHT22;1372;47.956;7.830;2024-02-04T07:06:43;5.90;99.90
2729;DHT22;1372;47.956;7.830;2024-02-04T07:09:12;6.00;99.90
2729;DHT22;1372;47.956;7.830;2024-02-04T07:11:40;6.00;99.90
2729;DHT22;1372;47.956;7.830;2024-02-04T07:14:12;6.10;99.90
2729;DHT22;1372;47.956;7.830;2024-02-04T07:16:42;6.20;99.90
2729;DHT22;1372;47.956;7.830;2024-02-04T07:19:12;6.30;99.90
2729;DHT22;1372;47.956;7.830;2024-02-04T07:21:41;6.30;99.90
2729;DHT22;1372;47.956;7.830;2024-02-04T07:24:11;6.30;99.90
2729;DHT22;1372;47.956;7.830;2024-02-04T07:26:40;6.30;99.90
2729;DHT22;1372;47.956;7.830;2024-02-04T07:29:08;6.30;99.90
2729;DHT22;1372;47.956;7.830;2024-02-04T07:31:37;6.40;99.90
2729;DHT22;1372;47.956;7.830;2024-02-04T07:34:07;6.40;99.90
2729;DHT22;1372;47.956;7.830;2024-02-04T07:36:41;6.40;99.90
2729;DHT22;1372;47.956;7.830;2024-02-04T07:39:14;6.30;99.90
2729;DHT22;1372;47.956;7.830;2024-02-04T07:41:44;6.30;99.90
2729;DHT22;1372;47.956;7.830;2024-02-04T07:44:13;6.20;99.90
2729;DHT22;1372;47.956;7.830;2024-02-04T07:46:44;6.30;99.90
2729;DHT22;1372;47.956;7.830;2024-02-04T07:49:14;6.30;99.90
2729;DHT22;1372;47.956;7.830;2024-02-04T07:51:43;6.30;99.90
2729;DHT22;1372;47.956;7.830;2024-02-04T07:54:12;6.30;99.90
2729;DHT22;1372;47.956;7.830;2024-02-04T07:56:41;6.40;99.90
2729;DHT22;1372;47.956;7.830;2024-02-04T07:59:12;6.50;99.90
2729;DHT22;1372;47.956;7.830;2024-02-04T08:01:41;6.50;99.90
2729;DHT22;1372;47.956;7.830;2024-02-04T08:04:10;6.50;99.90
2729;DHT22;1372;47.956;7.830;2024-02-04T08:06:41;6.50;99.90
2729;DHT22;1372;47.956;7.830;2024-02-04T08:09:13;6.60;99.90
2729;DHT22;1372;47.956;7.830;2024-02-04T08:11:42;6.60;99.90
2729;DHT22;1372;47.956;7.830;2024-02-04T08:14:10;6.60;99.90
2729;DHT22;1372;47.956;7.830;2024-02-04T08:16:41;6.60;99.90
2729;DHT22;1372;47.956;7.830;2024-02-04T08:19:10;6.60;99.90
2729;DHT22;1372;47.956;7.830;2024-02-04T08:21:42;6.70;99.90
2729;DHT22;1372;47.956;7.830;2024-02-04T08:24:11;6.80;99.90
2729;DHT22;1372;47.956;7.830;2024-02-04T08:26:40;6.80;99.90
2729;DHT22;1372;47.956;7.830;2024-02-04T08:29:09;6.80;99.90
2729;DHT22;1372;47.956;7.830;2024-02-04T08:31:38;6.80;99.90
2729;DHT22;1372;47.956;7.830;2024-02-04T08:34:07;6.90;99.90
2729;DHT22;1372;47.956;7.830;2024-02-04T08:36:36;6.90;99.90
2729;DHT22;1372;47.956;7.830;2024-02-04T08:39:07;6.90;99.90
2729;DHT22;1372;47.956;7.830;2024-02-04T08:41:36;7.00;99.90
2729;DHT22;1372;47.956;7.830;2024-02-04T08:44:05;7.10;99.90
2729;DHT22;1372;47.956;7.830;2024-02-04T08:46:35;7.20;99.90
2729;DHT22;1372;47.956;7.830;2024-02-04T08:49:04;7.30;99.90
2729;DHT22;1372;47.956;7.830;2024-02-04T08:51:33;7.30;99.90
2729;DHT22;1372;47.956;7.830;2024-02-04T08:54:02;7.40;99.90
2729;DHT22;1372;47.956;7.830;2024-02-04T08:56:33;7.40;99.90
2729;DHT22;1372;47.956;7.830;2024-02-04T08:59:01;7.50;99.90
2729;DHT22;1372;47.956;7.830;2024-02-04T09:01:33;7.50;99.90
2729;DHT22;1372;47.956;7.830;2024-02-04T09:04:02;7.50;99.90
2729;DHT22;1372;47.956;7.830;2024-02-04T09:06:31;7.60;99.90
2729;DHT22;1372;47.956;7.830;2024-02-04T09:09:00;7.60;99.90
2729;DHT22;1372;47.956;7.830;2024-02-04T09:11:29;7.60;99.90
2729;DHT22;1372;47.956;7.830;2024-02-04T09:13:59;7.60;99.90
2729;DHT22;1372;47.956;7.830;2024-02-04T09:16:29;7.60;99.90
2729;DHT22;1372;47.956;7.830;2024-02-04T09:19:00;7.70;99.90
2729;DHT22;1372;47.956;7.830;2024-02-04T09:21:32;7.70;99.90
2729;DHT22;1372;47.956;7.830;2024-02-04T09:24:01;7.70;99.90
2729;DHT22;1372;47.956;7.830;2024-02-04T09:26:29;7.80;99.90
2729;DHT22;1372;47.956;7.830;2024-02-04T09:29:00;7.80;99.90
2729;DHT22;1372;47.956;7.830;2024-02-04T09:31:29;7.90;99.90
2729;DHT22;1372;47.956;7.830;2024-02-04T09:33:58;7.90;99.90
2729;DHT22;1372;47.956;7.830;2024-02-04T09:36:27;8.00;99.90
2729;DHT22;1372;47.956;7.830;2024-02-04T09:39:02;8.00;99.90
2729;DHT22;1372;47.956;7.830;2024-02-04T09:41:32;8.00;99.90
2729;DHT22;1372;47.956;7.830;2024-02-04T09:44:02;8.00;99.90
2729;DHT22;1372;47.956;7.830;2024-02-04T09:46:35;8.10;99.90
2729;DHT22;1372;47.956;7.830;2024-02-04T09:49:08;8.20;99.90
2729;DHT22;1372;47.956;7.830;2024-02-04T09:51:41;8.20;99.90
2729;DHT22;1372;47.956;7.830;2024-02-04T09:54:15;8.20;99.90
2729;DHT22;1372;47.956;7.830;2024-02-04T09:56:45;8.30;99.90
2729;DHT22;1372;47.956;7.830;2024-02-04T09:59:16;8.30;99.90
2729;DHT22;1372;47.956;7.830;2024-02-04T10:01:46;8.30;99.90
2729;DHT22;1372;47.956;7.830;2024-02-04T10:04:16;8.40;99.90
2729;DHT22;1372;47.956;7.830;2024-02-04T10:06:45;8.40;99.90
2729;DHT22;1372;47.956;7.830;2024-02-04T10:09:15;8.40;99.90
2729;DHT22;1372;47.956;7.830;2024-02-04T10:11:44;8.50;99.90
2729;DHT22;1372;47.956;7.830;2024-02-04T10:14:13;8.60;99.90
2729;DHT22;1372;47.956;7.830;2024-02-04T10:16:49;8.60;99.90
2729;DHT22;1372;47.956;7.830;2024-02-04T10:19:24;8.60;99.90
2729;DHT22;1372;47.956;7.830;2024-02-04T10:22:00;8.60;99.90
2729;DHT22;1372;47.956;7.830;2024-02-04T10:24:29;8.50;99.90
2729;DHT22;1372;47.956;7.830;2024-02-04T10:26:59;8.50;99.90
2729;DHT22;1372;47.956;7.830;2024-02-04T10:29:29;8.50;99.90
2729;DHT22;1372;47.956;7.830;2024-02-04T10:31:58;8.50;99.90
2729;DHT22;1372;47.956;7.830;2024-02-04T10:34:27;8.50;99.90
2729;DHT22;1372;47.956;7.830;2024-02-04T10:36:57;8.50;99.90
2729;DHT22;1372;47.956;7.830;2024-02-04T10:39:26;8.50;99.90
2729;DHT22;1372;47.956;7.830;2024-02-04T10:42:02;8.60;99.90
2729;DHT22;1372;47.956;7.830;2024-02-04T10:44:36;8.50;99.90
2729;DHT22;1372;47.956;7.830;2024-02-04T10:47:10;8.50;99.90
2729;DHT22;1372;47.956;7.830;2024-02-04T10:49:47;8.60;99.90
2729;DHT22;1372;47.956;7.830;2024-02-04T10:52:27;8.70;99.90
2729;DHT22;1372;47.956;7.830;2024-02-04T10:54:56;8.60;99.90
2729;DHT22;1372;47.956;7.830;2024-02-04T10:57:26;8.70;99.90
2729;DHT22;1372;47.956;7.830;2024-02-04T11:00:00;8.70;99.90
2729;DHT22;1372;47.956;7.830;2024-02-04T11:02:34;8.60;99.90
2729;DHT22;1372;47.956;7.830;2024-02-04T11:05:08;8.60;99.90
2729;DHT22;1372;47.956;7.830;2024-02-04T11:07:38;8.70;99.90
2729;DHT22;1372;47.956;7.830;2024-02-04T11:10:08;8.80;99.90
2729;DHT22;1372;47.956;7.830;2024-02-04T11:12:40;8.90;99.90
2729;DHT22;1372;47.956;7.830;2024-02-04T11:15:14;9.00;99.90
2729;DHT22;1372;47.956;7.830;2024-02-04T11:21:50;9.00;99.90
2729;DHT22;1372;47.956;7.830;2024-02-04T11:24:53;9.10;99.90
2729;DHT22;1372;47.956;7.830;2024-02-04T11:27:30;9.20;99.90
2729;DHT22;1372;47.956;7.830;2024-02-04T11:29:59;9.40;99.90
2729;DHT22;1372;47.956;7.830;2024-02-04T11:32:30;9.40;99.90
2729;DHT22;1372;47.956;7.830;2024-02-04T11:34:59;9.40;99.90
2729;DHT22;1372;47.956;7.830;2024-02-04T11:37:31;9.50;99.90
2729;DHT22;1372;47.956;7.830;2024-02-04T11:40:04;9.50;99.90
2729;DHT22;1372;47.956;7.830;2024-02-04T11:42:34;9.60;99.90
2729;DHT22;1372;47.956;7.830;2024-02-04T11:45:10;9.60;99.90
2729;DHT22;1372;47.956;7.830;2024-02-04T11:47:42;9.70;99.90
2729;DHT22;1372;47.956;7.830;2024-02-04T11:50:11;9.90;99.90
2729;DHT22;1372;47.956;7.830;2024-02-04T11:52:41;9.90;99.90
2729;DHT22;1372;47.956;7.830;2024-02-04T11:55:13;9.90;99.90
2729;DHT22;1372;47.956;7.830;2024-02-04T11:57:43;9.80;99.90
2729;DHT22;1372;47.956;7.830;2024-02-04T12:00:13;9.70;99.90
2729;DHT22;1372;47.956;7.830;2024-02-04T12:02:45;9.90;99.90
2729;DHT22;1372;47.956;7.830;2024-02-04T12:05:14;9.90;99.90
2729;DHT22;1372;47.956;7.830;2024-02-04T12:07:44;9.90;99.90
2729;DHT22;1372;47.956;7.830;2024-02-04T12:10:13;9.90;99.90
2729;DHT22;1372;47.956;7.830;2024-02-04T12:12:42;10.10;99.90
2729;DHT22;1372;47.956;7.830;2024-02-04T12:15:11;10.00;99.90
2729;DHT22;1372;47.956;7.830;2024-02-04T12:17:40;10.10;99.90
2729;DHT22;1372;47.956;7.830;2024-02-04T12:20:11;10.00;99.90
2729;DHT22;1372;47.956;7.830;2024-02-04T12:22:40;10.00;99.90
2729;DHT22;1372;47.956;7.830;2024-02-04T12:25:12;10.10;99.90
2729;DHT22;1372;47.956;7.830;2024-02-04T12:27:41;10.00;99.90
2729;DHT22;1372;47.956;7.830;2024-02-04T12:30:10;9.90;99.90
2729;DHT22;1372;47.956;7.830;2024-02-04T12:32:39;9.90;99.90
2729;DHT22;1372;47.956;7.830;2024-02-04T12:35:14;9.90;99.90
2729;DHT22;1372;47.956;7.830;2024-02-04T12:37:50;10.00;99.90
2729;DHT22;1372;47.956;7.830;2024-02-04T12:40:23;10.00;99.90
2729;DHT22;1372;47.956;7.830;2024-02-04T12:42:53;10.10;99.90
2729;DHT22;1372;47.956;7.830;2024-02-04T12:45:25;10.10;99.90
2729;DHT22;1372;47.956;7.830;2024-02-04T12:47:55;10.10;99.90
2729;DHT22;1372;47.956;7.830;2024-02-04T12:50:27;10.20;99.90
2729;DHT22;1372;47.956;7.830;2024-02-04T12:53:03;10.20;99.90
2729;DHT22;1372;47.956;7.830;2024-02-04T12:55:36;10.20;99.90
2729;DHT22;1372;47.956;7.830;2024-02-04T12:58:06;10.20;99.90
2729;DHT22;1372;47.956;7.830;2024-02-04T13:00:37;10.20;99.90
2729;DHT22;1372;47.956;7.830;2024-02-04T13:03:07;10.10;99.90
2729;DHT22;1372;47.956;7.830;2024-02-04T13:05:41;10.10;99.90
2729;DHT22;1372;47.956;7.830;2024-02-04T13:08:10;10.00;99.90
2729;DHT22;1372;47.956;7.830;2024-02-04T13:10:39;10.00;99.90
2729;DHT22;1372;47.956;7.830;2024-02-04T13:13:15;10.10;99.90
2729;DHT22;1372;47.956;7.830;2024-02-04T13:15:46;10.00;99.90
2729;DHT22;1372;47.956;7.830;2024-02-04T13:18:15;10.00;99.90
2729;DHT22;1372;47.956;7.830;2024-02-04T13:20:45;10.00;99.90
2729;DHT22;1372;47.956;7.830;2024-02-04T13:23:14;10.00;99.90
2729;DHT22;1372;47.956;7.830;2024-02-04T13:25:43;10.00;99.90
2729;DHT22;1372;47.956;7.830;2024-02-04T13:28:13;10.10;99.90
2729;DHT22;1372;47.956;7.830;2024-02-04T13:30:42;10.00;99.90
2729;DHT22;1372;47.956;7.830;2024-02-04T13:33:10;10.00;99.90
2729;DHT22;1372;47.956;7.830;2024-02-04T13:35:40;10.00;99.90
2729;DHT22;1372;47.956;7.830;2024-02-04T13:38:11;10.00;99.90
2729;DHT22;1372;47.956;7.830;2024-02-04T13:40:39;10.10;99.90
2729;DHT22;1372;47.956;7.830;2024-02-04T13:43:09;10.20;99.90
2729;DHT22;1372;47.956;7.830;2024-02-04T13:45:40;10.20;99.90
2729;DHT22;1372;47.956;7.830;2024-02-04T13:48:09;10.10;99.90
2729;DHT22;1372;47.956;7.830;2024-02-04T13:50:37;10.10;99.90
2729;DHT22;1372;47.956;7.830;2024-02-04T13:53:06;10.10;99.90
2729;DHT22;1372;47.956;7.830;2024-02-04T13:55:36;10.10;99.90
2729;DHT22;1372;47.956;7.830;2024-02-04T13:58:06;10.10;99.90
2729;DHT22;1372;47.956;7.830;2024-02-04T14:00:37;10.00;99.90
2729;DHT22;1372;47.956;7.830;2024-02-04T14:03:06;10.00;99.90
2729;DHT22;1372;47.956;7.830;2024-02-04T14:05:35;10.00;99.90
2729;DHT22;1372;47.956;7.830;2024-02-04T14:08:05;10.00;99.90
2729;DHT22;1372;47.956;7.830;2024-02-04T14:10:36;10.10;99.90
2729;DHT22;1372;47.956;7.830;2024-02-04T14:13:05;10.00;99.90
2729;DHT22;1372;47.956;7.830;2024-02-04T14:15:36;9.90;99.90
2729;DHT22;1372;47.956;7.830;2024-02-04T14:18:06;9.90;99.90
2729;DHT22;1372;47.956;7.830;2024-02-04T14:20:37;9.90;99.90
2729;DHT22;1372;47.956;7.830;2024-02-04T14:23:08;9.80;99.90
2729;DHT22;1372;47.956;7.830;2024-02-04T14:25:38;9.80;99.90
2729;DHT22;1372;47.956;7.830;2024-02-04T14:28:07;9.80;99.90
2729;DHT22;1372;47.956;7.830;2024-02-04T14:30:36;9.80;99.90
2729;DHT22;1372;47.956;7.830;2024-02-04T14:33:04;9.70;99.90
2729;DHT22;1372;47.956;7.830;2024-02-04T14:35:34;9.70;99.90
2729;DHT22;1372;47.956;7.830;2024-02-04T14:38:05;9.80;99.90
2729;DHT22;1372;47.956;7.830;2024-02-04T14:40:36;9.80;99.90
2729;DHT22;1372;47.956;7.830;2024-02-04T14:43:06;9.70;99.90
2729;DHT22;1372;47.956;7.830;2024-02-04T14:45:35;9.70;99.90
2729;DHT22;1372;47.956;7.830;2024-02-04T14:48:06;9.70;99.90
2729;DHT22;1372;47.956;7.830;2024-02-04T14:50:37;9.60;99.90
2729;DHT22;1372;47.956;7.830;2024-02-04T14:53:06;9.70;99.90
2729;DHT22;1372;47.956;7.830;2024-02-04T14:55:35;9.70;99.90
2729;DHT22;1372;47.956;7.830;2024-02-04T14:58:05;9.60;99.90
2729;DHT22;1372;47.956;7.830;2024-02-04T15:00:34;9.60;99.90
2729;DHT22;1372;47.956;7.830;2024-02-04T15:03:03;9.60;99.90
2729;DHT22;1372;47.956;7.830;2024-02-04T15:05:32;9.70;99.90
2729;DHT22;1372;47.956;7.830;2024-02-04T15:08:01;9.70;99.90
2729;DHT22;1372;47.956;7.830;2024-02-04T15:10:30;9.60;99.90
2729;DHT22;1372;47.956;7.830;2024-02-04T15:13:03;9.60;99.90
2729;DHT22;1372;47.956;7.830;2024-02-04T15:15:37;9.60;99.90
2729;DHT22;1372;47.956;7.830;2024-02-04T15:18:07;9.60;99.90
2729;DHT22;1372;47.956;7.830;2024-02-04T15:20:37;9.70;99.90
2729;DHT22;1372;47.956;7.830;2024-02-04T15:23:10;9.70;99.90
2729;DHT22;1372;47.956;7.830;2024-02-04T15:25:40;9.80;99.90
2729;DHT22;1372;47.956;7.830;2024-02-04T15:28:12;9.90;99.90
2729;DHT22;1372;47.956;7.830;2024-02-04T15:30:42;10.00;99.90
2729;DHT22;1372;47.956;7.830;2024-02-04T15:33:12;10.00;99.90
2729;DHT22;1372;47.956;7.830;2024-02-04T15:35:41;10.10;99.90
2729;DHT22;1372;47.956;7.830;2024-02-04T15:38:11;10.00;99.90
2729;DHT22;1372;47.956;7.830;2024-02-04T15:40:44;9.90;99.90
2729;DHT22;1372;47.956;7.830;2024-02-04T15:43:14;9.80;99.90
2729;DHT22;1372;47.956;7.830;2024-02-04T15:45:44;9.80;99.90
2729;DHT22;1372;47.956;7.830;2024-02-04T15:48:17;9.70;99.90
2729;DHT22;1372;47.956;7.830;2024-02-04T15:50:47;9.60;99.90
2729;DHT22;1372;47.956;7.830;2024-02-04T15:53:17;9.60;99.90
2729;DHT22;1372;47.956;7.830;2024-02-04T15:55:47;9.50;99.90
2729;DHT22;1372;47.956;7.830;2024-02-04T15:58:18;9.60;99.90
2729;DHT22;1372;47.956;7.830;2024-02-04T16:00:47;9.50;99.90
2729;DHT22;1372;47.956;7.830;2024-02-04T16:03:17;9.40;99.90
2729;DHT22;1372;47.956;7.830;2024-02-04T16:05:47;9.30;99.90
2729;DHT22;1372;47.956;7.830;2024-02-04T16:08:17;9.30;99.90
2729;DHT22;1372;47.956;7.830;2024-02-04T16:10:47;9.20;99.90
2729;DHT22;1372;47.956;7.830;2024-02-04T16:13:21;9.10;99.90
2729;DHT22;1372;47.956;7.830;2024-02-04T16:15:55;9.10;99.90
2729;DHT22;1372;47.956;7.830;2024-02-04T16:18:26;9.00;99.90
2729;DHT22;1372;47.956;7.830;2024-02-04T16:20:57;9.00;99.90
2729;DHT22;1372;47.956;7.830;2024-02-04T16:23:29;8.90;99.90
2729;DHT22;1372;47.956;7.830;2024-02-04T16:25:59;8.90;99.90
2729;DHT22;1372;47.956;7.830;2024-02-04T16:28:29;8.90;99.90
2729;DHT22;1372;47.956;7.830;2024-02-04T16:30:58;8.90;99.90
2729;DHT22;1372;47.956;7.830;2024-02-04T16:33:27;8.80;99.90
2729;DHT22;1372;47.956;7.830;2024-02-04T16:35:56;8.70;99.90
2729;DHT22;1372;47.956;7.830;2024-02-04T16:38:26;8.60;99.90
2729;DHT22;1372;47.956;7.830;2024-02-04T16:40:56;8.50;99.90